Wakefield, Texas
Current Conditions -  °F | °C
As of 7:53 PM on Thursday 20 Nov 2014 (Local Time) from KLFK Reporting Station
Overcast Overcast  
Wind Chill: 65°   Ceiling: 6000
Heat Index: 65°   Visibility: 10mi
Dew Point: 53°   Wind: 8mph
Humidity: 65%   Direction: 150°SSE
Pressure: 30.11"   Gusts: NA
Location:  31.024°N, 94.7686°W
Report Text: KLFK 210153Z AUTO 15007KT 10SM FEW049 OVC060 18/12 A3011 RMK AO2 SLP192 T01830117
Loading
Personal Weather Stations






























Interactive Weather Map New forecast layout! Learn more

10-Day Weather Forecast

Advertisements
Track Severe Weather on mobile